NBEK1: Neosho R at Burlingame Rd nr Emporia KS

                                SHEF ID:       NBEK1     NEOSHO R AT BURLINGAME RD NR EMP
STATION TYPE:

PRECIP STAGE STAGE(2) RIV-FLOW BAT-LOAD
in ft ft cfs volt
Ccp-Rev Ccp-Rev Ccp-Rev Ccp-Rev Ccp-Rev
(America/Chicago)
04/27 00:00 0.00 8.88 5.51 2045 12.42
04/27 01:00 0.00 10.11 5.92 2616 12.41
04/27 02:00 0.00 11.03 6.22 3069 12.40
04/27 03:00 0.00 11.64 6.42 3380 12.37
04/27 04:00 0.00 12.01 6.54 3573 12.36
04/27 05:00 0.00 12.18 6.59 3663 12.33
04/27 06:00 0.26 12.31 6.63 3732 12.27
04/27 07:00 0.00 12.53 6.71 3849 12.25
04/27 08:00 0.00 12.82 6.79 4006 12.23
04/27 09:00 0.00 13.35 6.98 4296 12.50
04/27 10:00 0.00 14.04 7.24 4683 12.96
04/27 11:00 0.00 14.82 7.49 5132 13.03
04/27 12:00 0.00 15.59 7.75 5586 12.80
04/27 13:00 0.00 16.30 7.99 6014 12.80
04/27 14:00 0.00 16.97 8.21 6426 12.79
04/27 15:00 0.00 17.58 8.41 6808 12.71
04/27 16:00 0.00 18.09 8.57 7132 12.76
04/27 17:00 0.00 18.53 8.71 7415 12.72
04/27 18:00 0.00 18.93 8.84 7675 12.69
04/27 19:00 0.00 19.33 9.01 7938 12.61
04/27 20:00 0.00 19.69 9.08 8176 12.53
04/27 21:00 0.00 20.03 9.20 8403 12.47
04/27 22:00 0.00 20.31 9.28 8592 12.45
04/27 23:00 0.00 20.53 9.35 8740 12.40
Data processed at Tue 28Apr2026 04:36 GMT

NOTICE: If you are parsing this page

Please convert to using our Data API. Starting early 2026 we will be migrating to: https://water.usace.army.mil with modern pages rendered in JavaScript. When this migration completes you will no longer be able to scrape this page! CWMSDataAPI (CDA)

Timeseries IDs (TSIDs)

TSIDs used from left to right in the data table
EMPO.Precip-Inc.Total.1Hour.1Hour.Ccp-Rev
EMPO.Stage.Inst.1Hour.0.Ccp-Rev
EMPO.Stage-Alt.Inst.1Hour.0.Ccp-Rev
EMPO.Flow.Inst.1Hour.0.Ccp-Rev
EMPO.Volt-Battery Load.Inst.1Hour.0.Ccp-Rev

                            

All information presented herein is the property of the government of the United States of America and may be revised or deleted at any time without prior notice. Dissemination of this information without the expressed written consent of the Public Affairs Office, Tulsa District U.S. Army Corps of Engineers is strictly prohibited. These data are gathered electronically and, as presented, have NOT undergone any form of quality control. These data are NOT guaranteed to be valid or correct.